Stoneville, South Dakota
Current Conditions -  °F | °C
As of 6:58 PM on Saturday 25 Oct 2014 (Local Time) from KRCA Reporting Station
Clear Clear  
Wind Chill: 56°   Ceiling: Unl
Heat Index: 56°   Visibility: 10mi
Dew Point: 39°   Wind: 8mph
Humidity: 53%   Direction: 180°S
Pressure: 29.94"   Gusts: NA
Location:  44.653°N, 102.847°W
Report Text: KRCA 260058Z AUTO 18007KT 10SM CLR 13/04 A2994 RMK AO2 SLP146 T01320038 $
Loading
Personal Weather Stations






























Interactive Weather Map
Tropical Storm Tracking
New forecast layout! Learn more

10-Day Weather Forecast

Advertisements
Track Severe Weather on mobile